Time;durP1;ratioP1;P1;durP2;ratioP2;P2;SDS_P1;SDS_P2;PMS_P1;PMS_P2;Temp;Humidity;BMP_temperature;BMP_pressure;BME280_temperature;BME280_humidity;BME280_pressure;Samples;Min_cycle;Max_cycle;Signal;HPM_P1;HPM_P2
2024/01/08 00:00:15;;;;;;;0.95;0.95;;;0.40;99.90;;;;;;5054304;28;20033;-73
2024/01/08 00:02:41;;;;;;;0.50;0.50;;;0.30;99.90;;;;;;5053869;28;20043;-73
2024/01/08 00:05:07;;;;;;;0.10;0.10;;;0.20;99.90;;;;;;5054192;28;20481;-73
2024/01/08 00:07:32;;;;;;;0.73;0.52;;;0.10;99.90;;;;;;5053708;28;20017;-74
2024/01/08 00:09:58;;;;;;;0.55;0.50;;;0.10;99.90;;;;;;5053923;28;20057;-73
2024/01/08 00:12:24;;;;;;;0.40;0.40;;;0.00;99.90;;;;;;5053785;28;20056;-73
2024/01/08 00:14:50;;;;;;;3.60;1.95;;;0.10;99.90;;;;;;5053656;28;20021;-73
2024/01/08 00:17:16;;;;;;;0.10;0.10;;;0.10;99.90;;;;;;5019480;28;20392;-73
2024/01/08 00:19:42;;;;;;;0.22;0.22;;;0.00;99.90;;;;;;5035903;28;20036;-73
2024/01/08 00:22:08;;;;;;;0.52;0.52;;;0.10;99.90;;;;;;5053800;28;20029;-73
2024/01/08 00:24:33;;;;;;;0.50;0.50;;;0.20;99.90;;;;;;5053260;28;20029;-73
2024/01/08 00:26:59;;;;;;;1.00;0.93;;;0.10;99.90;;;;;;5053641;28;20104;-73
2024/01/08 00:29:25;;;;;;;9.63;0.95;;;0.10;99.90;;;;;;5052272;28;20148;-73
2024/01/08 00:31:51;;;;;;;2.28;2.05;;;0.10;99.90;;;;;;5053848;28;20096;-74
2024/01/08 00:34:16;;;;;;;0.43;0.43;;;0.20;99.90;;;;;;5052247;28;20047;-73
2024/01/08 00:36:42;;;;;;;2.72;1.42;;;0.20;99.90;;;;;;5053552;28;20051;-73
2024/01/08 00:39:11;;;;;;;2.17;1.67;;;0.30;99.90;;;;;;5051731;28;20029;-73
2024/01/08 00:41:38;;;;;;;2.58;1.83;;;0.30;99.90;;;;;;5053439;28;20021;-72
2024/01/08 00:44:04;;;;;;;0.68;0.68;;;0.40;99.90;;;;;;5053344;28;20043;-73
2024/01/08 00:46:29;;;;;;;0.52;0.43;;;0.40;99.90;;;;;;5052979;28;20040;-74
2024/01/08 00:48:56;;;;;;;0.80;0.73;;;0.20;99.90;;;;;;5053293;28;20033;-73
2024/01/08 00:51:22;;;;;;;0.35;0.35;;;0.10;99.90;;;;;;5053173;28;20154;-73
2024/01/08 00:53:48;;;;;;;10.35;2.42;;;0.00;99.90;;;;;;5052731;28;20037;-73
2024/01/08 00:56:15;;;;;;;2.70;1.60;;;0.00;99.90;;;;;;5053411;28;20035;-73
2024/01/08 00:58:43;;;;;;;0.10;0.10;;;0.00;99.90;;;;;;5052676;28;20381;-74
2024/01/08 01:01:11;;;;;;;3.42;0.90;;;0.00;99.90;;;;;;5052958;28;20429;-73
2024/01/08 01:03:36;;;;;;;1.08;0.80;;;0.00;99.90;;;;;;5018681;28;20021;-73
2024/01/08 01:06:02;;;;;;;0.32;0.32;;;-0.10;99.90;;;;;;5052904;28;20107;-73
2024/01/08 01:08:28;;;;;;;0.10;0.10;;;0.00;99.90;;;;;;5052536;28;20029;-73
2024/01/08 01:10:54;;;;;;;0.30;0.30;;;0.10;99.90;;;;;;5033172;28;20040;-73
2024/01/08 01:13:20;;;;;;;1.88;1.17;;;0.40;99.90;;;;;;5051367;28;20032;-73
2024/01/08 01:15:46;;;;;;;0.93;0.88;;;0.40;99.90;;;;;;5052550;28;20029;-73
2024/01/08 01:18:11;;;;;;;0.80;0.80;;;0.40;99.90;;;;;;5051660;28;20119;-73
2024/01/08 01:20:37;;;;;;;0.10;0.10;;;0.30;99.90;;;;;;5052873;28;20428;-73
2024/01/08 01:23:03;;;;;;;1.05;0.98;;;0.20;99.90;;;;;;5052727;28;20040;-73
2024/01/08 01:25:29;;;;;;;0.30;0.30;;;0.20;99.90;;;;;;5052600;28;20101;-73
2024/01/08 01:27:54;;;;;;;1.17;0.93;;;0.30;99.90;;;;;;5052750;28;20373;-73
2024/01/08 01:30:20;;;;;;;1.20;0.95;;;0.20;99.90;;;;;;5052814;28;20477;-73
2024/01/08 01:32:46;;;;;;;0.30;0.30;;;0.10;99.90;;;;;;5052593;28;20035;-73
2024/01/08 01:35:12;;;;;;;0.10;0.10;;;0.10;99.90;;;;;;5052649;28;20025;-73
2024/01/08 01:37:38;;;;;;;0.30;0.30;;;0.30;99.90;;;;;;5052396;28;20107;-73
2024/01/08 01:40:05;;;;;;;2.92;1.00;;;0.20;99.90;;;;;;5052419;28;20017;-73
2024/01/08 01:42:31;;;;;;;0.35;0.35;;;0.40;99.90;;;;;;5052624;28;20120;-73
2024/01/08 01:44:57;;;;;;;1.08;0.98;;;0.20;99.90;;;;;;5052214;28;20072;-73
2024/01/08 01:47:24;;;;;;;1.65;1.55;;;0.20;99.90;;;;;;5052388;28;20075;-73
2024/01/08 01:49:51;;;;;;;0.40;0.40;;;0.20;99.90;;;;;;5052421;28;20432;-73
2024/01/08 01:52:17;;;;;;;0.70;0.70;;;0.30;99.90;;;;;;5052372;28;20037;-73
2024/01/08 01:54:43;;;;;;;5.80;2.50;;;0.20;99.90;;;;;;5052432;28;20086;-73
2024/01/08 01:57:09;;;;;;;1.45;1.35;;;0.10;99.90;;;;;;5051132;28;20036;-73
2024/01/08 01:59:35;;;;;;;0.10;0.10;;;0.20;99.90;;;;;;5052355;28;20021;-73
2024/01/08 02:02:02;;;;;;;3.35;2.28;;;0.30;99.90;;;;;;5052013;28;20500;-73
2024/01/08 02:04:29;;;;;;;0.40;0.40;;;0.20;99.90;;;;;;5034578;28;20074;-73
2024/01/08 02:06:58;;;;;;;1.27;1.05;;;0.10;99.90;;;;;;5034715;28;20060;-73
2024/01/08 02:09:26;;;;;;;0.35;0.35;;;0.20;99.90;;;;;;5038467;28;20370;-73
2024/01/08 02:11:52;;;;;;;13.50;1.20;;;0.40;99.90;;;;;;5056269;28;20483;-73
2024/01/08 02:14:18;;;;;;;1.55;1.15;;;0.20;99.90;;;;;;5056323;28;20096;-73
2024/01/08 02:16:44;;;;;;;0.65;0.63;;;0.40;99.90;;;;;;5056030;28;20363;-73
2024/01/08 02:19:11;;;;;;;0.20;0.20;;;0.50;99.90;;;;;;5021422;28;20026;-74
2024/01/08 02:21:36;;;;;;;2.25;1.15;;;0.50;99.90;;;;;;5054579;28;20096;-73
2024/01/08 02:24:04;;;;;;;0.88;0.85;;;0.50;99.90;;;;;;5055816;28;20122;-73
2024/01/08 02:26:30;;;;;;;1.65;0.98;;;0.60;99.90;;;;;;5055778;28;20021;-73
2024/01/08 02:28:56;;;;;;;1.13;0.82;;;0.40;99.90;;;;;;5056042;28;20065;-73
2024/01/08 02:31:23;;;;;;;0.20;0.20;;;0.40;99.90;;;;;;5055712;28;20079;-73
2024/01/08 02:33:49;;;;;;;1.20;1.10;;;0.40;99.90;;;;;;5055992;28;20107;-74
2024/01/08 02:36:15;;;;;;;0.10;0.10;;;0.40;99.90;;;;;;5055228;28;20111;-73
2024/01/08 02:38:41;;;;;;;0.43;0.43;;;0.30;99.90;;;;;;5055850;28;20478;-73
2024/01/08 02:41:06;;;;;;;1.02;1.00;;;0.30;99.90;;;;;;5041478;28;20393;-73
2024/01/08 02:43:32;;;;;;;0.50;0.35;;;0.30;99.90;;;;;;5037833;28;20536;-73
2024/01/08 02:45:58;;;;;;;1.10;1.02;;;0.20;99.90;;;;;;5038012;28;20088;-73
2024/01/08 02:48:24;;;;;;;3.78;1.40;;;0.00;99.90;;;;;;5055571;28;20111;-73
2024/01/08 02:50:50;;;;;;;0.70;0.70;;;0.00;99.90;;;;;;5054014;28;20152;-73
2024/01/08 02:53:16;;;;;;;0.77;0.77;;;0.00;99.90;;;;;;5055459;28;20548;-73
2024/01/08 02:55:42;;;;;;;2.08;1.55;;;0.20;99.90;;;;;;5055536;28;20095;-73
2024/01/08 02:58:08;;;;;;;0.70;0.70;;;0.20;99.90;;;;;;5037518;28;20466;-73
2024/01/08 03:00:34;;;;;;;0.88;0.85;;;0.20;99.90;;;;;;5055280;28;20091;-73
2024/01/08 03:03:00;;;;;;;0.70;0.55;;;0.40;99.90;;;;;;5053574;28;20037;-73
2024/01/08 03:05:25;;;;;;;0.43;0.43;;;0.30;99.90;;;;;;5054982;28;20035;-73
2024/01/08 03:07:51;;;;;;;0.20;0.20;;;0.40;99.90;;;;;;5037290;28;20119;-73
2024/01/08 03:10:17;;;;;;;1.75;0.68;;;0.40;99.90;;;;;;5055061;28;20013;-73
2024/01/08 03:12:43;;;;;;;3.92;0.22;;;0.30;99.90;;;;;;5053785;28;20363;-73
2024/01/08 03:15:09;;;;;;;0.40;0.40;;;0.20;99.90;;;;;;5054808;28;20120;-73
2024/01/08 03:17:35;;;;;;;0.10;0.10;;;0.30;99.90;;;;;;5053475;28;20039;-73
2024/01/08 03:20:02;;;;;;;1.25;1.10;;;0.40;99.90;;;;;;5053772;28;20052;-73
2024/01/08 03:22:27;;;;;;;0.80;0.40;;;0.40;99.90;;;;;;5054767;28;20029;-73
2024/01/08 03:24:53;;;;;;;1.83;1.20;;;0.50;99.90;;;;;;5054815;28;20362;-73
2024/01/08 03:27:19;;;;;;;0.60;0.60;;;0.50;99.90;;;;;;5054784;28;20096;-73
2024/01/08 03:29:44;;;;;;;1.00;0.90;;;0.50;99.90;;;;;;5054886;28;20490;-73
2024/01/08 03:32:11;;;;;;;0.10;0.10;;;0.40;99.90;;;;;;5054601;28;20017;-73
2024/01/08 03:34:37;;;;;;;1.25;1.15;;;0.50;99.90;;;;;;5053045;28;20489;-73
2024/01/08 03:37:03;;;;;;;0.10;0.10;;;0.60;99.90;;;;;;5054620;28;20032;-73
2024/01/08 03:39:30;;;;;;;3.22;1.65;;;0.70;99.90;;;;;;5053350;28;20033;-74
2024/01/08 03:41:56;;;;;;;1.00;0.98;;;0.60;99.90;;;;;;5054498;28;20037;-73
2024/01/08 03:44:22;;;;;;;0.10;0.10;;;0.40;99.90;;;;;;5054431;28;20477;-73
2024/01/08 03:46:48;;;;;;;1.17;1.08;;;0.40;99.90;;;;;;5053983;28;20027;-74
2024/01/08 03:49:14;;;;;;;1.42;1.33;;;0.50;99.90;;;;;;5036524;28;20041;-73
2024/01/08 03:51:40;;;;;;;0.93;0.70;;;0.50;99.90;;;;;;5054241;28;20032;-73
2024/01/08 03:54:06;;;;;;;0.57;0.50;;;0.40;99.90;;;;;;5054154;28;20021;-73
2024/01/08 03:56:31;;;;;;;0.20;0.20;;;0.30;99.90;;;;;;5054330;28;20509;-73
2024/01/08 03:58:57;;;;;;;0.25;0.25;;;0.30;99.90;;;;;;5053859;28;20040;-73
2024/01/08 04:01:23;;;;;;;0.68;0.35;;;0.40;99.90;;;;;;5053587;28;20060;-73
2024/01/08 04:03:52;;;;;;;0.22;0.22;;;0.40;99.90;;;;;;5053819;28;20396;-73
2024/01/08 04:06:18;;;;;;;0.10;0.10;;;0.50;99.90;;;;;;5054234;28;20033;-73
2024/01/08 04:08:44;;;;;;;0.80;0.73;;;0.50;99.90;;;;;;5053844;28;20052;-73
2024/01/08 04:11:10;;;;;;;0.68;0.55;;;0.50;99.90;;;;;;5053792;28;20520;-73
2024/01/08 04:13:38;;;;;;;1.27;1.00;;;0.70;99.90;;;;;;5053774;28;20374;-73
2024/01/08 04:16:04;;;;;;;2.08;1.00;;;0.60;99.90;;;;;;5053449;28;20120;-73
2024/01/08 04:18:30;;;;;;;0.47;0.40;;;0.60;99.90;;;;;;5052475;28;20079;-73
2024/01/08 04:20:56;;;;;;;1.40;0.75;;;0.70;99.90;;;;;;5053452;28;20440;-73
2024/01/08 04:23:22;;;;;;;0.20;0.20;;;0.70;99.90;;;;;;5053850;28;20370;-73
2024/01/08 04:25:48;;;;;;;0.75;0.75;;;0.50;99.90;;;;;;5035886;28;20029;-73
2024/01/08 04:28:14;;;;;;;1.00;0.82;;;0.60;99.90;;;;;;5053545;28;20481;-73
2024/01/08 04:30:40;;;;;;;1.38;1.30;;;0.50;99.90;;;;;;5052741;28;20088;-73
2024/01/08 04:33:06;;;;;;;0.22;0.22;;;0.30;99.90;;;;;;5053673;28;20025;-73
2024/01/08 04:35:32;;;;;;;0.63;0.60;;;0.40;99.90;;;;;;5053781;28;20140;-73
2024/01/08 04:37:58;;;;;;;1.13;1.08;;;0.40;99.90;;;;;;5053043;28;20025;-73
2024/01/08 04:40:24;;;;;;;1.20;0.80;;;0.40;99.90;;;;;;5043768;28;20540;-73
2024/01/08 04:42:50;;;;;;;1.67;0.85;;;0.30;99.90;;;;;;5052648;28;20428;-73
2024/01/08 04:45:15;;;;;;;4.47;0.88;;;0.20;99.90;;;;;;5034256;28;20036;-73
2024/01/08 04:47:41;;;;;;;0.30;0.30;;;0.00;99.90;;;;;;5053201;28;20027;-73
2024/01/08 04:50:08;;;;;;;1.95;1.13;;;0.00;99.90;;;;;;5053056;28;20477;-73
2024/01/08 04:52:33;;;;;;;0.10;0.10;;;0.00;99.90;;;;;;5036802;28;20021;-73
2024/01/08 04:54:59;;;;;;;0.20;0.20;;;0.20;99.90;;;;;;5052746;28;20381;-73
2024/01/08 04:57:25;;;;;;;0.43;0.43;;;0.10;99.90;;;;;;5053116;28;20103;-73
2024/01/08 04:59:51;;;;;;;0.38;0.38;;;0.20;99.90;;;;;;5052535;28;20033;-73
2024/01/08 05:02:16;;;;;;;0.47;0.47;;;-0.10;99.90;;;;;;5052559;28;20527;-73
2024/01/08 05:04:42;;;;;;;1.40;0.77;;;-0.20;99.90;;;;;;5052631;28;20029;-73
2024/01/08 05:07:08;;;;;;;0.65;0.65;;;-0.40;99.90;;;;;;5053151;28;20413;-73
2024/01/08 05:09:34;;;;;;;1.98;0.60;;;-0.40;99.90;;;;;;5052750;28;20362;-73
2024/01/08 05:11:59;;;;;;;0.98;0.45;;;-0.50;99.90;;;;;;5052717;28;20129;-74
2024/01/08 05:14:25;;;;;;;1.85;0.93;;;-0.50;99.90;;;;;;5052064;28;20025;-74
2024/01/08 05:16:51;;;;;;;0.57;0.57;;;-0.40;99.90;;;;;;5052392;28;20444;-73
2024/01/08 05:19:18;;;;;;;1.60;0.85;;;-0.30;99.90;;;;;;5034783;28;20488;-73
2024/01/08 05:21:44;;;;;;;1.38;1.02;;;-0.40;99.90;;;;;;5052702;28;20020;-73
2024/01/08 05:24:11;;;;;;;0.88;0.88;;;-0.50;99.90;;;;;;5052459;28;20127;-74
2024/01/08 05:26:36;;;;;;;0.15;0.15;;;-0.70;99.90;;;;;;5052803;28;20067;-73
2024/01/08 05:29:02;;;;;;;1.02;0.75;;;-0.80;99.90;;;;;;5052202;28;20025;-73
2024/01/08 05:31:28;;;;;;;0.65;0.65;;;-0.70;99.90;;;;;;5034484;28;20107;-73
2024/01/08 05:33:53;;;;;;;1.45;0.80;;;-0.60;99.90;;;;;;5052532;28;20470;-73
2024/01/08 05:36:19;;;;;;;0.13;0.13;;;-0.70;99.90;;;;;;5052371;28;20021;-73
2024/01/08 05:38:45;;;;;;;0.40;0.40;;;-0.70;99.90;;;;;;5052487;28;20438;-73
2024/01/08 05:41:11;;;;;;;2.72;0.98;;;-0.70;99.90;;;;;;5033787;28;20044;-73
2024/01/08 05:43:40;;;;;;;2.70;2.50;;;-0.60;99.90;;;;;;5052008;28;20027;-73
2024/01/08 05:46:06;;;;;;;0.20;0.20;;;-0.60;99.90;;;;;;5051173;28;20036;-73
2024/01/08 05:48:39;;;;;;;3.70;3.30;;;-0.50;99.90;;;;;;5034820;28;20040;-73
2024/01/08 05:51:06;;;;;;;1.02;0.65;;;-0.50;99.90;;;;;;5052168;28;20037;-73
2024/01/08 05:53:35;;;;;;;0.32;0.32;;;-0.50;99.90;;;;;;5052492;28;20025;-74
2024/01/08 05:56:02;;;;;;;0.80;0.80;;;-0.50;99.90;;;;;;5052353;28;20025;-73
2024/01/08 05:58:28;;;;;;;1.52;1.42;;;-0.40;99.90;;;;;;5052044;28;20033;-73
2024/01/08 06:00:54;;;;;;;1.65;0.85;;;-0.40;99.90;;;;;;5052122;28;20021;-73
2024/01/08 06:03:23;;;;;;;0.82;0.82;;;-0.40;99.90;;;;;;5051923;28;20021;-73
2024/01/08 06:05:49;;;;;;;1.25;0.82;;;-0.50;99.90;;;;;;5050808;28;20044;-73
2024/01/08 06:08:16;;;;;;;0.10;0.10;;;-0.50;99.90;;;;;;5051340;28;20032;-73
2024/01/08 06:10:42;;;;;;;0.20;0.20;;;-0.50;99.90;;;;;;5052156;28;20052;-73
2024/01/08 06:13:10;;;;;;;0.20;0.20;;;-0.40;99.90;;;;;;5052326;28;20025;-73
2024/01/08 06:15:37;;;;;;;0.32;0.32;;;-0.40;99.90;;;;;;5051955;28;20458;-73
2024/01/08 06:18:07;;;;;;;2.65;1.45;;;-0.40;99.90;;;;;;5052170;28;20052;-73
2024/01/08 06:20:33;;;;;;;0.20;0.20;;;-0.30;99.90;;;;;;5052025;28;20028;-73
2024/01/08 06:23:00;;;;;;;4.38;0.77;;;-0.30;99.90;;;;;;5052182;28;20057;-73
2024/01/08 06:25:25;;;;;;;0.68;0.68;;;-0.30;99.90;;;;;;5034474;28;20051;-73
2024/01/08 06:27:52;;;;;;;0.57;0.57;;;-0.30;99.90;;;;;;5050761;28;20108;-73
2024/01/08 06:30:18;;;;;;;1.50;1.40;;;-0.40;99.90;;;;;;5034296;28;20033;-73
2024/01/08 06:32:45;;;;;;;0.90;0.90;;;-0.30;99.90;;;;;;5052040;28;20067;-73
2024/01/08 06:35:11;;;;;;;0.30;0.30;;;-0.40;99.90;;;;;;5034470;28;20029;-74
2024/01/08 06:37:36;;;;;;;0.10;0.10;;;-0.40;99.90;;;;;;5051703;28;20040;-73
2024/01/08 06:40:03;;;;;;;0.10;0.10;;;-0.30;99.90;;;;;;5052349;28;20021;-72
2024/01/08 06:42:29;;;;;;;0.10;0.10;;;-0.20;99.90;;;;;;5051749;28;20496;-73
2024/01/08 06:44:55;;;;;;;1.20;0.93;;;-0.10;99.90;;;;;;5051759;28;20041;-74
2024/01/08 06:47:20;;;;;;;1.17;0.85;;;-0.20;99.90;;;;;;5040474;28;20398;-73
2024/01/08 06:49:46;;;;;;;0.85;0.73;;;-0.30;99.90;;;;;;5049302;28;20056;-73
2024/01/08 06:52:12;;;;;;;0.60;0.60;;;-0.30;99.90;;;;;;5050743;28;20390;-73
2024/01/08 06:54:38;;;;;;;2.33;2.15;;;-0.30;99.90;;;;;;5035957;28;20057;-74
2024/01/08 06:57:04;;;;;;;0.28;0.28;;;-0.30;99.90;;;;;;5042586;28;20425;-73
2024/01/08 06:59:30;;;;;;;0.63;0.63;;;-0.30;99.90;;;;;;5055274;28;20531;-73
2024/01/08 07:01:55;;;;;;;3.92;1.30;;;-0.20;99.90;;;;;;5055163;28;20029;-73
2024/01/08 07:04:21;;;;;;;0.93;0.88;;;-0.30;99.90;;;;;;5055344;28;20033;-74
2024/01/08 07:06:47;;;;;;;1.17;0.85;;;-0.30;99.90;;;;;;5053705;28;20029;-74
2024/01/08 07:09:13;;;;;;;0.73;0.70;;;-0.20;99.90;;;;;;5055256;28;20038;-73
2024/01/08 07:11:38;;;;;;;1.95;0.75;;;-0.30;99.90;;;;;;5036720;28;20080;-74
2024/01/08 07:14:04;;;;;;;1.88;1.20;;;-0.20;99.90;;;;;;5055221;28;20075;-74
2024/01/08 07:16:30;;;;;;;1.08;1.08;;;-0.20;99.90;;;;;;5055043;28;20040;-73
2024/01/08 07:18:56;;;;;;;0.40;0.40;;;-0.20;99.90;;;;;;5054765;28;20508;-73
2024/01/08 07:21:22;;;;;;;3.40;1.95;;;-0.30;99.90;;;;;;5055254;28;20025;-73
2024/01/08 07:23:50;;;;;;;1.75;1.35;;;-0.30;99.90;;;;;;5053291;28;20131;-73
2024/01/08 07:26:16;;;;;;;0.38;0.30;;;-0.40;99.90;;;;;;5054520;28;20478;-73
2024/01/08 07:28:46;;;;;;;0.65;0.65;;;-0.50;99.90;;;;;;5020584;28;20025;-74
2024/01/08 07:31:12;;;;;;;1.95;1.05;;;-0.30;99.90;;;;;;5036951;28;20032;-74
2024/01/08 07:33:39;;;;;;;2.65;1.25;;;-0.30;99.90;;;;;;5054738;28;20033;-74
2024/01/08 07:36:05;;;;;;;0.60;0.60;;;-0.20;99.90;;;;;;5054703;28;20040;-73
2024/01/08 07:38:31;;;;;;;6.03;1.33;;;-0.30;99.90;;;;;;5054380;28;20047;-73
2024/01/08 07:40:57;;;;;;;0.88;0.40;;;-0.30;99.90;;;;;;5055771;28;20025;-74
2024/01/08 07:43:24;;;;;;;2.50;1.75;;;-0.20;99.90;;;;;;5054812;28;20029;-73
2024/01/08 07:45:51;;;;;;;0.40;0.40;;;-0.30;99.90;;;;;;5054388;28;20470;-73
2024/01/08 07:48:17;;;;;;;1.10;0.55;;;-0.20;99.90;;;;;;5056629;28;20040;-73
2024/01/08 07:50:42;;;;;;;1.00;0.75;;;-0.30;99.90;;;;;;5057275;28;20037;-73
2024/01/08 07:53:09;;;;;;;0.50;0.50;;;-0.30;99.90;;;;;;5055215;28;20032;-73
2024/01/08 07:55:35;;;;;;;2.35;1.85;;;-0.40;99.90;;;;;;5036174;28;20075;-73
2024/01/08 07:58:01;;;;;;;1.48;0.75;;;-0.20;99.90;;;;;;5053305;28;20029;-73
2024/01/08 08:00:27;;;;;;;1.02;0.95;;;-0.10;99.90;;;;;;5035417;28;20091;-73
2024/01/08 08:02:54;;;;;;;1.10;0.85;;;-0.10;99.90;;;;;;5053510;28;20114;-73
2024/01/08 08:05:20;;;;;;;1.35;0.95;;;-0.10;99.90;;;;;;5035512;28;20036;-74
2024/01/08 08:07:46;;;;;;;1.00;0.90;;;-0.20;99.90;;;;;;5053921;28;20017;-73
2024/01/08 08:10:12;;;;;;;0.98;0.63;;;-0.20;99.90;;;;;;5053532;28;20107;-73
2024/01/08 08:12:37;;;;;;;1.13;0.80;;;-0.20;99.90;;;;;;5053961;28;20456;-73
2024/01/08 08:15:04;;;;;;;0.35;0.35;;;-0.10;99.90;;;;;;5052185;28;20394;-73
2024/01/08 08:17:30;;;;;;;2.15;1.92;;;-0.10;99.90;;;;;;5053673;28;20091;-73
2024/01/08 08:19:56;;;;;;;0.10;0.10;;;0.00;99.90;;;;;;5053701;28;20033;-73
2024/01/08 08:22:23;;;;;;;0.30;0.30;;;-0.10;99.90;;;;;;5053513;28;20127;-73
2024/01/08 08:24:49;;;;;;;0.55;0.55;;;-0.20;99.90;;;;;;5052187;28;20127;-73
2024/01/08 08:27:15;;;;;;;0.98;0.68;;;-0.10;99.90;;;;;;5035885;28;20517;-73
2024/01/08 08:29:43;;;;;;;0.70;0.70;;;0.00;99.90;;;;;;5053562;28;20055;-73
2024/01/08 08:32:09;;;;;;;1.85;1.35;;;0.00;99.90;;;;;;5053432;28;20086;-73
2024/01/08 08:34:35;;;;;;;0.50;0.50;;;0.10;99.90;;;;;;5053385;28;20465;-73
2024/01/08 08:37:01;;;;;;;0.55;0.45;;;0.10;99.90;;;;;;5053317;28;20060;-73
2024/01/08 08:39:27;;;;;;;2.28;1.38;;;0.10;99.90;;;;;;5053346;28;20068;-73
2024/01/08 08:41:54;;;;;;;0.50;0.50;;;0.10;99.90;;;;;;5053308;28;20017;-73
2024/01/08 08:44:21;;;;;;;0.93;0.90;;;0.00;99.90;;;;;;5052588;28;20424;-73
2024/01/08 08:46:46;;;;;;;0.10;0.10;;;0.10;99.90;;;;;;5053179;28;20099;-73
2024/01/08 08:49:14;;;;;;;2.30;1.33;;;0.10;99.90;;;;;;5052241;28;20152;-73
2024/01/08 08:51:40;;;;;;;0.40;0.40;;;0.30;99.90;;;;;;5052854;28;20473;-73
2024/01/08 08:54:06;;;;;;;2.28;1.45;;;0.30;99.90;;;;;;5053196;28;20358;-73
2024/01/08 08:56:33;;;;;;;2.42;1.63;;;0.40;99.90;;;;;;5053313;28;20063;-73
2024/01/08 08:58:59;;;;;;;3.83;0.32;;;0.50;99.90;;;;;;5052857;28;20045;-74
2024/01/08 09:01:25;;;;;;;1.00;0.90;;;0.50;99.90;;;;;;5052990;28;20021;-74
2024/01/08 09:03:52;;;;;;;1.65;0.90;;;0.50;99.90;;;;;;5035067;28;20029;-74
2024/01/08 09:06:20;;;;;;;1.48;0.35;;;0.50;99.90;;;;;;5052767;28;20051;-73
2024/01/08 09:08:47;;;;;;;0.98;0.98;;;0.50;99.90;;;;;;5053000;28;20457;-74
2024/01/08 09:11:13;;;;;;;1.23;0.90;;;0.60;99.90;;;;;;5052791;28;20064;-73
2024/01/08 09:13:39;;;;;;;0.40;0.40;;;0.50;99.90;;;;;;5052700;28;20013;-73
2024/01/08 09:16:10;;;;;;;2.10;1.17;;;0.60;99.90;;;;;;5050945;28;20439;-73
2024/01/08 09:18:36;;;;;;;2.63;0.95;;;0.70;99.90;;;;;;5052528;28;20119;-74
2024/01/08 09:21:01;;;;;;;3.03;1.42;;;0.80;99.90;;;;;;5052219;28;20059;-73
2024/01/08 09:23:27;;;;;;;7.40;3.88;;;0.90;99.90;;;;;;5052839;28;20033;-73
2024/01/08 09:25:53;;;;;;;4.57;1.58;;;1.00;99.90;;;;;;5052382;28;20063;-73
2024/01/08 09:28:19;;;;;;;0.10;0.10;;;1.00;99.90;;;;;;5051560;28;20033;-73
2024/01/08 09:30:45;;;;;;;2.85;2.05;;;0.90;99.90;;;;;;5052022;28;20421;-74
2024/01/08 09:33:11;;;;;;;0.47;0.47;;;0.90;99.90;;;;;;5052647;28;20039;-73
2024/01/08 09:35:37;;;;;;;2.85;1.25;;;0.90;99.90;;;;;;5034682;28;20056;-73
2024/01/08 09:38:03;;;;;;;3.08;0.82;;;1.00;99.90;;;;;;5052601;28;20055;-74
2024/01/08 09:40:28;;;;;;;0.22;0.22;;;1.10;99.90;;;;;;5052592;28;20040;-73
2024/01/08 09:42:58;;;;;;;0.20;0.20;;;1.20;99.90;;;;;;5052555;28;20086;-74
2024/01/08 09:45:26;;;;;;;0.55;0.55;;;1.10;99.90;;;;;;5052317;28;20048;-73
2024/01/08 09:47:54;;;;;;;0.20;0.20;;;1.10;99.90;;;;;;5052562;28;20076;-73
2024/01/08 09:50:21;;;;;;;0.47;0.47;;;1.30;99.90;;;;;;5050881;28;20441;-73
2024/01/08 09:52:49;;;;;;;1.13;1.02;;;1.40;99.90;;;;;;5034485;28;20445;-73
2024/01/08 09:55:16;;;;;;;0.10;0.10;;;1.40;99.90;;;;;;5052345;28;20064;-73
2024/01/08 09:57:42;;;;;;;0.10;0.10;;;1.70;99.90;;;;;;5051266;28;20484;-73
2024/01/08 10:00:09;;;;;;;0.30;0.30;;;1.40;99.90;;;;;;5052061;28;20021;-73
2024/01/08 10:02:39;;;;;;;1.88;1.75;;;1.40;99.90;;;;;;5034408;28;20371;-73
2024/01/08 10:05:08;;;;;;;0.57;0.57;;;1.30;99.90;;;;;;5034306;28;20032;-73
2024/01/08 10:07:35;;;;;;;1.65;1.42;;;1.20;99.90;;;;;;5052099;28;20032;-73
2024/01/08 10:10:01;;;;;;;0.35;0.35;;;1.30;99.90;;;;;;5034526;28;20040;-73
2024/01/08 10:12:28;;;;;;;0.30;0.30;;;1.40;99.90;;;;;;5052313;28;20113;-74
2024/01/08 10:14:55;;;;;;;0.52;0.52;;;1.40;99.90;;;;;;5051905;28;20033;-73
2024/01/08 10:17:21;;;;;;;0.10;0.10;;;1.30;99.90;;;;;;5052012;28;20032;-72
2024/01/08 10:19:48;;;;;;;0.95;0.68;;;1.30;99.90;;;;;;5051792;28;20029;-73
2024/01/08 10:22:14;;;;;;;0.47;0.47;;;1.40;99.90;;;;;;5034240;28;20400;-73
2024/01/08 10:24:42;;;;;;;0.55;0.55;;;1.40;99.90;;;;;;5051989;28;20443;-73
2024/01/08 10:27:09;;;;;;;0.15;0.15;;;1.50;99.90;;;;;;5052043;28;20025;-73
2024/01/08 10:29:36;;;;;;;1.65;1.55;;;1.40;99.90;;;;;;5037811;28;20032;-73
2024/01/08 10:32:02;;;;;;;0.82;0.65;;;1.40;99.90;;;;;;5055765;28;20032;-73
2024/01/08 10:34:30;;;;;;;2.97;0.98;;;1.60;99.90;;;;;;5055668;28;20020;-73
2024/01/08 10:36:57;;;;;;;0.82;0.65;;;1.60;99.90;;;;;;5055733;28;20477;-73
2024/01/08 10:39:24;;;;;;;0.47;0.47;;;1.40;99.90;;;;;;5037858;28;20371;-73
2024/01/08 10:41:50;;;;;;;1.20;0.70;;;1.30;99.90;;;;;;5055113;28;20021;-73
2024/01/08 10:44:16;;;;;;;0.65;0.45;;;1.20;99.90;;;;;;5054444;28;20463;-73
2024/01/08 10:46:56;;;;;;;1.08;0.80;;;1.30;99.90;;;;;;5055745;28;20024;-73
2024/01/08 10:49:36;;;;;;;5.60;2.80;;;1.30;99.90;;;;;;5055491;28;20044;-73
2024/01/08 10:52:28;;;;;;;0.60;0.60;;;1.20;99.90;;;;;;5054206;28;20389;-73
2024/01/08 10:54:59;;;;;;;0.10;0.10;;;1.10;99.90;;;;;;5037425;28;20021;-73
2024/01/08 10:57:56;;;;;;;0.10;0.10;;;1.10;99.90;;;;;;5055379;28;20024;-73
2024/01/08 11:00:22;;;;;;;0.05;0.05;;;1.30;99.90;;;;;;5047413;28;20124;-73
2024/01/08 11:02:48;;;;;;;2.17;2.05;;;1.30;99.90;;;;;;5055010;28;20025;-73
2024/01/08 11:05:16;;;;;;;1.33;1.10;;;1.30;99.90;;;;;;5055107;28;20032;-73
2024/01/08 11:07:50;;;;;;;0.30;0.30;;;1.20;99.90;;;;;;5053654;28;20416;-73
2024/01/08 11:10:17;;;;;;;2.50;0.80;;;1.40;99.90;;;;;;5037251;28;20076;-73
2024/01/08 11:12:57;;;;;;;0.45;0.40;;;1.40;99.90;;;;;;5055160;28;20017;-73
2024/01/08 11:15:27;;;;;;;0.47;0.28;;;1.40;99.90;;;;;;5054905;28;20096;-74
2024/01/08 11:17:54;;;;;;;0.20;0.20;;;1.40;99.90;;;;;;5054543;28;20029;-73
2024/01/08 11:20:42;;;;;;;2.05;0.77;;;1.60;99.90;;;;;;5037174;28;20410;-73
2024/01/08 11:23:33;;;;;;;0.35;0.35;;;1.80;99.90;;;;;;5042945;28;20040;-73
2024/01/08 11:26:02;;;;;;;0.98;0.98;;;2.00;99.90;;;;;;5054706;28;20083;-73
2024/01/08 11:28:35;;;;;;;1.25;0.82;;;1.90;99.90;;;;;;5054672;28;20425;-73
2024/01/08 11:31:10;;;;;;;0.10;0.10;;;2.00;99.90;;;;;;5049409;28;20032;-73
2024/01/08 11:33:45;;;;;;;1.48;1.38;;;2.10;99.90;;;;;;5036417;28;20047;-73
2024/01/08 11:36:16;;;;;;;0.15;0.15;;;1.90;99.90;;;;;;5051660;28;20043;-73
2024/01/08 11:38:54;;;;;;;3.90;2.13;;;1.90;99.90;;;;;;5036362;28;20116;-73
2024/01/08 11:41:20;;;;;;;0.10;0.10;;;1.90;99.90;;;;;;5053711;28;20029;-73
2024/01/08 11:43:46;;;;;;;1.35;1.17;;;1.70;99.90;;;;;;5054357;28;20044;-73
2024/01/08 11:46:12;;;;;;;0.65;0.55;;;1.70;99.90;;;;;;5053782;28;20055;-73
2024/01/08 11:48:38;;;;;;;7.43;2.40;;;1.70;99.90;;;;;;5054335;28;20100;-73
2024/01/08 11:51:04;;;;;;;0.00;0.00;;;1.50;99.90;;;;;;5054248;28;20055;-74
2024/01/08 11:53:31;;;;;;;1.15;0.80;;;1.50;99.90;;;;;;5054242;28;20021;-73
2024/01/08 11:55:57;;;;;;;0.57;0.57;;;1.60;99.90;;;;;;5053948;28;20047;-72
2024/01/08 11:58:23;;;;;;;4.80;1.85;;;2.10;99.90;;;;;;5053993;28;20059;-73
2024/01/08 12:00:49;;;;;;;1.10;1.08;;;3.10;99.90;;;;;;5053631;28;20493;-73
2024/01/08 12:03:15;;;;;;;0.80;0.80;;;3.40;99.90;;;;;;5053781;28;20049;-73
2024/01/08 12:05:41;;;;;;;0.20;0.20;;;4.20;99.90;;;;;;5053957;28;20029;-73
2024/01/08 12:08:14;;;;;;;1.23;1.15;;;4.70;99.90;;;;;;5053779;28;20033;-74
2024/01/08 12:10:40;;;;;;;0.35;0.35;;;5.00;99.90;;;;;;5036136;28;20029;-74
2024/01/08 12:13:06;;;;;;;0.15;0.08;;;5.20;99.90;;;;;;5053797;28;20059;-73
2024/01/08 12:15:32;;;;;;;0.65;0.45;;;5.40;99.90;;;;;;5053461;28;20052;-74
2024/01/08 12:17:59;;;;;;;0.85;0.70;;;5.60;99.90;;;;;;5035805;28;20083;-73
2024/01/08 12:20:27;;;;;;;0.40;0.40;;;5.80;99.70;;;;;;5053777;28;20029;-73
2024/01/08 12:22:54;;;;;;;0.38;0.38;;;5.90;99.10;;;;;;5035931;28;20108;-75
2024/01/08 12:25:20;;;;;;;1.73;0.70;;;5.00;99.60;;;;;;5053663;28;20043;-74
2024/01/08 12:27:47;;;;;;;0.80;0.73;;;4.40;99.70;;;;;;5035628;28;20392;-74
2024/01/08 12:30:13;;;;;;;1.38;1.27;;;4.10;99.90;;;;;;5053363;28;20378;-74
2024/01/08 12:32:40;;;;;;;0.35;0.35;;;3.60;99.90;;;;;;5053685;28;20021;-74
2024/01/08 12:35:14;;;;;;;1.05;0.95;;;3.70;99.90;;;;;;5053488;28;20029;-73
2024/01/08 12:37:40;;;;;;;3.92;0.75;;;3.30;99.90;;;;;;5053586;28;20485;-74
2024/01/08 12:40:07;;;;;;;1.75;1.65;;;3.20;99.90;;;;;;5053333;28;20071;-74
2024/01/08 12:42:35;;;;;;;1.15;1.05;;;3.10;99.90;;;;;;5053644;28;20037;-74
2024/01/08 12:45:01;;;;;;;0.90;0.70;;;2.70;99.90;;;;;;5051517;28;20456;-73
2024/01/08 12:47:28;;;;;;;3.05;1.65;;;2.90;99.90;;;;;;5053472;28;20059;-74
2024/01/08 12:49:54;;;;;;;1.02;0.82;;;3.10;99.90;;;;;;5052884;28;20032;-74
2024/01/08 12:52:22;;;;;;;1.55;1.45;;;3.10;99.90;;;;;;5053207;28;20466;-73